Terminal Aerodrome Forecast
Issued by NWS Wakefield, VA

Home | Current Version | Previous Version | Text Only | Print | Product List | Glossary On
Versions: 1 2 3 4 5 6 7 8 9 10 11 12 13 14 15 16 17 18 19 20 21
735
FTUS41 KAKQ 282328
TAFRIC
TAF
KRIC 282328Z 2900/2924 20011KT P6SM FEW050
     FM290900 20007KT P6SM SCT010
     FM291200 21008KT P6SM SCT040 SCT250=

USA.gov is the U.S. government's official web portal to all federal, state and local government web resources and services.